Time;durP1;ratioP1;P1;durP2;ratioP2;P2;SDS_P1;SDS_P2;PMS_P1;PMS_P2;Temp;Humidity;BMP_temperature;BMP_pressure;BME280_temperature;BME280_humidity;BME280_pressure;Samples;Min_cycle;Max_cycle;Signal;HPM_P1;HPM_P2
2023/02/05 00:00:41;;;;;;;62.03;26.02;;;;;;;7.65;100.00;103787.91;5263451;28;20133;-78
2023/02/05 00:03:12;;;;;;;57.80;27.58;;;;;;;7.62;100.00;103785.38;5273744;28;20015;-79
2023/02/05 00:05:42;;;;;;;58.83;26.33;;;;;;;7.58;100.00;103773.09;5282364;28;20024;-78
2023/02/05 00:08:13;;;;;;;65.57;26.73;;;;;;;7.50;100.00;103774.34;5246407;28;20032;-79
2023/02/05 00:10:50;;;;;;;64.82;27.35;;;;;;;7.44;100.00;103763.97;5246057;28;20047;-78
2023/02/05 00:13:20;;;;;;;60.95;27.25;;;;;;;7.39;100.00;103766.00;5277088;28;20035;-79
2023/02/05 00:15:51;;;;;;;65.32;26.85;;;;;;;7.38;100.00;103766.06;5272201;28;20036;-79
2023/02/05 00:18:21;;;;;;;64.47;27.33;;;;;;;7.36;100.00;103759.94;5246528;28;20020;-78
2023/02/05 00:20:51;;;;;;;67.97;28.48;;;;;;;7.33;100.00;103752.94;5254599;28;20028;-79
2023/02/05 00:23:22;;;;;;;66.15;27.88;;;;;;;7.31;100.00;103745.94;5270214;28;20541;-79
2023/02/05 00:25:52;;;;;;;67.15;26.73;;;;;;;7.28;100.00;103746.97;5264130;28;20023;-79
2023/02/05 00:28:23;;;;;;;70.13;28.83;;;;;;;7.26;100.00;103743.47;5248677;28;20110;-79
2023/02/05 00:30:53;;;;;;;70.13;28.48;;;;;;;7.24;100.00;103746.25;5285617;28;20039;-79
2023/02/05 00:33:24;;;;;;;75.55;28.35;;;;;;;7.22;100.00;103737.41;5268651;28;20031;-78
2023/02/05 00:35:54;;;;;;;72.65;28.38;;;;;;;7.21;100.00;103725.00;5264538;28;20528;-78
2023/02/05 00:38:25;;;;;;;84.55;30.90;;;;;;;7.19;100.00;103726.03;5263594;28;20334;-79
2023/02/05 00:40:55;;;;;;;70.82;30.20;;;;;;;7.18;100.00;103721.66;5268166;28;20085;-78
2023/02/05 00:43:26;;;;;;;77.45;29.58;;;;;;;7.17;100.00;103723.41;5256957;28;20023;-79
2023/02/05 00:45:56;;;;;;;82.93;29.80;;;;;;;7.15;100.00;103719.97;5288887;28;20020;-79
2023/02/05 00:48:27;;;;;;;69.20;28.48;;;;;;;7.15;100.00;103711.09;5262782;28;20028;-79
2023/02/05 00:50:57;;;;;;;75.13;29.52;;;;;;;7.14;100.00;103704.91;5249595;28;20306;-78
2023/02/05 00:53:28;;;;;;;75.75;29.25;;;;;;;7.12;100.00;103714.78;5249928;28;20028;-79
2023/02/05 00:55:59;;;;;;;71.53;29.38;;;;;;;7.13;100.00;103724.53;5267830;28;20031;-78
2023/02/05 00:58:29;;;;;;;76.78;30.08;;;;;;;7.12;100.00;103716.56;5249247;28;20595;-79
2023/02/05 01:01:00;;;;;;;70.60;28.58;;;;;;;7.12;100.00;103713.91;5267313;28;20024;-78
2023/02/05 01:03:30;;;;;;;71.10;28.42;;;;;;;7.10;100.00;103708.66;5261258;28;20019;-79
2023/02/05 01:06:02;;;;;;;65.88;28.77;;;;;;;7.10;100.00;103711.31;5251303;28;20064;-79
2023/02/05 01:08:32;;;;;;;76.35;29.40;;;;;;;7.07;100.00;103703.44;5267481;28;20020;-79
2023/02/05 01:11:06;;;;;;;72.38;29.75;;;;;;;7.10;100.00;103705.13;5267164;28;20049;-78
2023/02/05 01:13:38;;;;;;;82.55;30.98;;;;;;;7.08;100.00;103702.53;5249016;28;20103;-79
2023/02/05 01:16:09;;;;;;;81.60;32.03;;;;;;;7.08;100.00;103706.97;5267358;28;20063;-79
2023/02/05 01:18:39;;;;;;;66.85;29.95;;;;;;;7.08;100.00;103707.88;5251785;28;20504;-79
2023/02/05 01:21:10;;;;;;;73.68;29.90;;;;;;;7.06;100.00;103707.06;5278141;28;20016;-78
2023/02/05 01:23:40;;;;;;;77.68;30.52;;;;;;;7.10;100.00;103707.78;5267394;28;20020;-78
2023/02/05 01:26:11;;;;;;;79.05;29.90;;;;;;;7.08;100.00;103705.22;5267176;28;20027;-78
2023/02/05 01:28:41;;;;;;;78.38;31.70;;;;;;;7.07;100.00;103705.25;5266795;28;20026;-78
2023/02/05 01:31:12;;;;;;;76.97;31.30;;;;;;;7.10;100.00;103702.44;5248966;28;20051;-79
2023/02/05 01:33:42;;;;;;;75.90;29.73;;;;;;;7.11;100.00;103709.50;5255625;28;20094;-78
2023/02/05 01:36:13;;;;;;;70.72;29.67;;;;;;;7.09;100.00;103709.59;5273712;28;20248;-78
2023/02/05 01:38:43;;;;;;;76.07;29.95;;;;;;;7.07;100.00;103705.25;5266505;28;20016;-79
2023/02/05 01:41:14;;;;;;;78.35;31.23;;;;;;;7.07;100.00;103721.28;5268487;28;20469;-78
2023/02/05 01:44:05;;;;;;;71.43;31.15;;;;;;;7.10;100.00;103727.34;5260822;28;20023;-78
2023/02/05 01:46:38;;;;;;;68.45;29.15;;;;;;;7.08;100.00;103726.56;5266389;28;20389;-78
2023/02/05 01:49:18;;;;;;;75.25;31.23;;;;;;;7.06;100.00;103731.09;5280186;28;20417;-79
2023/02/05 01:51:50;;;;;;;68.60;29.50;;;;;;;7.05;100.00;103726.69;5275033;28;20020;-79
2023/02/05 01:54:24;;;;;;;71.57;30.15;;;;;;;7.05;100.00;103725.84;5287945;28;20030;-79
2023/02/05 01:57:00;;;;;;;72.13;30.00;;;;;;;7.00;100.00;103713.56;5258686;28;20023;-79
2023/02/05 01:59:35;;;;;;;80.53;32.63;;;;;;;6.99;100.00;103719.00;5271347;28;20020;-78
2023/02/05 02:02:06;;;;;;;70.80;30.67;;;;;;;7.01;100.00;103722.44;5274155;28;20422;-79
2023/02/05 02:04:59;;;;;;;70.63;29.05;;;;;;;7.04;100.00;103732.13;5262555;28;20069;-79
2023/02/05 02:07:29;;;;;;;70.05;29.75;;;;;;;7.05;100.00;103737.38;5270836;28;20027;-79
2023/02/05 02:10:00;;;;;;;66.85;30.15;;;;;;;7.11;100.00;103750.44;5257880;28;20032;-78
2023/02/05 02:12:33;;;;;;;61.30;28.25;;;;;;;7.08;100.00;103744.34;5280569;28;20039;-78
2023/02/05 02:15:09;;;;;;;67.50;28.38;;;;;;;7.06;100.00;103733.75;5279781;28;20024;-81
2023/02/05 02:17:43;;;;;;;66.13;28.02;;;;;;;7.06;100.00;103738.25;5248469;28;20031;-79
2023/02/05 02:20:17;;;;;;;63.17;28.08;;;;;;;7.04;100.00;103740.13;5281545;28;20023;-79
2023/02/05 02:23:07;;;;;;;64.85;28.58;;;;;;;7.08;100.00;103723.00;5269509;28;20038;-79
2023/02/05 02:25:54;;;;;;;77.93;28.35;;;;;;;7.03;100.00;103709.91;5268080;28;20099;-79
2023/02/05 02:28:28;;;;;;;65.43;28.08;;;;;;;7.00;100.00;103712.69;5249895;28;20036;-79
2023/02/05 02:31:28;;;;;;;69.38;27.17;;;;;;;7.00;100.00;103713.56;5287114;28;20118;-78
2023/02/05 02:34:19;;;;;;;65.00;27.10;;;;;;;6.96;100.00;103724.47;5266553;28;20028;-79
2023/02/05 02:37:07;;;;;;;62.90;26.15;;;;;;;6.97;100.00;103713.69;5270927;28;20547;-78
2023/02/05 02:39:43;;;;;;;65.53;25.80;;;;;;;6.97;100.00;103721.72;5285877;28;20069;-78
2023/02/05 02:42:22;;;;;;;55.08;25.02;;;;;;;7.01;100.00;103722.44;5231975;28;20031;-79
2023/02/05 02:44:57;;;;;;;56.85;24.52;;;;;;;7.05;100.00;103707.16;5284165;28;20032;-78
2023/02/05 02:47:35;;;;;;;54.33;25.25;;;;;;;7.01;100.00;103712.63;5268415;28;20380;-78
2023/02/05 02:50:14;;;;;;;54.20;23.65;;;;;;;6.98;100.00;103717.25;5248354;28;20031;-79
2023/02/05 02:52:47;;;;;;;53.97;22.83;;;;;;;7.03;100.00;103709.00;5266008;28;20023;-79
2023/02/05 02:55:20;;;;;;;49.47;21.67;;;;;;;6.99;100.00;103700.31;5257867;28;20030;-77
2023/02/05 02:57:53;;;;;;;47.72;20.95;;;;;;;7.01;100.00;103706.41;5282290;28;20099;-78
2023/02/05 03:00:42;;;;;;;49.08;20.95;;;;;;;6.99;100.00;103693.16;5268425;28;20031;-78
2023/02/05 03:03:17;;;;;;;41.58;18.75;;;;;;;7.00;100.00;103694.88;5275308;28;20460;-78
2023/02/05 03:05:50;;;;;;;39.92;16.83;;;;;;;7.05;100.00;103701.81;5273285;28;20480;-78
2023/02/05 03:08:33;;;;;;;42.53;17.77;;;;;;;7.05;100.00;103701.81;5286136;28;20032;-79
2023/02/05 03:11:26;;;;;;;42.28;16.55;;;;;;;7.05;100.00;103688.47;5265559;28;20051;-78
2023/02/05 03:13:57;;;;;;;33.70;15.65;;;;;;;7.06;100.00;103703.53;5270338;28;20016;-78
2023/02/05 03:16:28;;;;;;;37.33;15.38;;;;;;;7.09;100.00;103692.72;5274299;28;20024;-79
2023/02/05 03:18:59;;;;;;;39.60;14.70;;;;;;;7.10;100.00;103697.13;5271151;28;20051;-79
2023/02/05 03:21:44;;;;;;;28.98;12.73;;;;;;;7.07;100.00;103689.25;5272664;28;20386;-78
2023/02/05 03:24:15;;;;;;;33.78;13.50;;;;;;;7.01;100.00;103683.25;5265712;28;20501;-78
2023/02/05 03:26:46;;;;;;;35.78;13.80;;;;;;;6.99;100.00;103687.81;5247279;28;20032;-79
2023/02/05 03:29:25;;;;;;;26.08;13.00;;;;;;;6.97;100.00;103689.69;5265281;28;20027;-78
2023/02/05 03:32:11;;;;;;;34.15;14.00;;;;;;;6.93;100.00;103682.78;5270586;28;20047;-79
2023/02/05 03:35:19;;;;;;;31.73;12.52;;;;;;;6.83;100.00;103667.25;5284914;28;20024;-78
2023/02/05 03:38:15;;;;;;;27.40;12.88;;;;;;;6.78;100.00;103687.94;5265226;28;20391;-79
2023/02/05 03:41:02;;;;;;;29.63;12.82;;;;;;;6.78;100.00;103682.63;5276515;28;20028;-79
2023/02/05 03:43:51;;;;;;;28.08;12.77;;;;;;;6.75;100.00;103683.66;5254797;28;20031;-79
2023/02/05 03:46:42;;;;;;;30.98;12.10;;;;;;;6.73;100.00;103682.88;5281704;28;20477;-80
2023/02/05 03:49:34;;;;;;;31.27;13.13;;;;;;;6.74;100.00;103695.25;5265607;28;20020;-78
2023/02/05 03:52:14;;;;;;;34.85;12.90;;;;;;;6.69;100.00;103690.13;5274470;28;20023;-78
2023/02/05 03:55:04;;;;;;;29.42;11.50;;;;;;;6.67;100.00;103685.78;5271384;28;20031;-78
2023/02/05 03:57:59;;;;;;;28.50;12.30;;;;;;;6.61;100.00;103691.41;5267262;28;20031;-78
2023/02/05 04:00:31;;;;;;;27.08;11.57;;;;;;;6.57;100.00;103693.34;5266080;28;20388;-78
2023/02/05 04:03:02;;;;;;;24.83;10.93;;;;;;;6.63;100.00;103694.91;5260429;28;20043;-79
2023/02/05 04:05:32;;;;;;;27.38;11.50;;;;;;;6.58;100.00;103679.09;5266923;28;20107;-78
2023/02/05 04:08:03;;;;;;;25.67;11.20;;;;;;;6.59;100.00;103687.97;5276409;28;20034;-78
2023/02/05 04:10:34;;;;;;;24.67;10.38;;;;;;;6.60;100.00;103689.69;5281149;28;20027;-78
2023/02/05 04:13:05;;;;;;;24.60;11.55;;;;;;;6.60;100.00;103689.69;5250874;28;20039;-79
2023/02/05 04:15:36;;;;;;;23.52;9.63;;;;;;;6.61;100.00;103697.63;5257803;28;20430;-78
2023/02/05 04:18:07;;;;;;;24.95;10.57;;;;;;;6.59;100.00;103694.16;5277742;28;20031;-78
2023/02/05 04:20:37;;;;;;;26.23;10.32;;;;;;;6.55;100.00;103697.91;5268941;28;20028;-78
2023/02/05 04:23:08;;;;;;;23.65;10.98;;;;;;;6.56;100.00;103693.44;5268839;28;20545;-78
2023/02/05 04:25:39;;;;;;;23.88;10.68;;;;;;;6.53;100.00;103706.94;5250692;28;20034;-78
2023/02/05 04:28:10;;;;;;;21.63;10.50;;;;;;;6.55;100.00;103702.38;5265151;28;20016;-78
2023/02/05 04:30:40;;;;;;;24.50;10.52;;;;;;;6.56;100.00;103709.44;5262941;28;20093;-78
2023/02/05 04:33:11;;;;;;;24.35;10.38;;;;;;;6.55;100.00;103713.91;5282500;28;20046;-78
2023/02/05 04:35:41;;;;;;;21.52;10.40;;;;;;;6.58;100.00;103718.25;5278570;28;20057;-78
2023/02/05 04:38:12;;;;;;;21.58;10.23;;;;;;;6.60;100.00;103724.38;5272340;28;20444;-79
2023/02/05 04:40:44;;;;;;;30.77;10.63;;;;;;;6.56;100.00;103725.44;5251138;28;20394;-78
2023/02/05 04:43:14;;;;;;;22.05;8.95;;;;;;;6.54;100.00;103722.00;5269900;28;20020;-79
2023/02/05 04:45:45;;;;;;;20.02;9.57;;;;;;;6.51;100.00;103717.66;5280055;28;20081;-78
2023/02/05 04:48:16;;;;;;;21.65;9.52;;;;;;;6.53;100.00;103722.94;5291770;28;20107;-78
2023/02/05 04:50:46;;;;;;;24.70;9.02;;;;;;;6.53;100.00;103729.13;5290260;28;20106;-79
2023/02/05 04:53:17;;;;;;;22.60;8.50;;;;;;;6.51;100.00;103722.97;5274999;28;20027;-78
2023/02/05 04:55:48;;;;;;;19.05;9.05;;;;;;;6.47;100.00;103724.91;5292193;28;20520;-78
2023/02/05 04:58:20;;;;;;;21.77;8.70;;;;;;;6.53;100.00;103725.59;5288954;28;20232;-79
2023/02/05 05:00:50;;;;;;;19.00;8.60;;;;;;;6.60;100.00;103727.91;5284256;28;20028;-78
2023/02/05 05:03:21;;;;;;;19.58;8.45;;;;;;;6.59;100.00;103726.19;5260727;28;20031;-79
2023/02/05 05:05:51;;;;;;;21.83;7.65;;;;;;;6.63;100.00;103718.91;5253362;28;20022;-79
2023/02/05 05:08:22;;;;;;;18.38;9.05;;;;;;;6.62;100.00;103723.34;5261290;28;20038;-79
2023/02/05 05:10:52;;;;;;;32.15;10.20;;;;;;;6.58;100.00;103727.13;5269219;28;20020;-79
2023/02/05 05:13:23;;;;;;;19.83;9.27;;;;;;;6.51;100.00;103727.47;5267874;28;20427;-79
2023/02/05 05:15:54;;;;;;;21.80;10.20;;;;;;;6.49;100.00;103723.06;5288169;28;20077;-79
2023/02/05 05:18:25;;;;;;;25.98;10.48;;;;;;;6.46;100.00;103735.66;5256853;28;20331;-78
2023/02/05 05:20:55;;;;;;;30.90;11.48;;;;;;;6.39;100.00;103728.88;5253643;28;20038;-79
2023/02/05 05:23:26;;;;;;;32.05;12.13;;;;;;;6.32;100.00;103730.94;5273063;28;20385;-78
2023/02/05 05:25:57;;;;;;;25.90;11.85;;;;;;;6.32;100.00;103733.59;5276500;28;20031;-79
2023/02/05 05:28:31;;;;;;;31.05;13.02;;;;;;;6.29;100.00;103728.44;5271091;28;20028;-79
2023/02/05 05:31:18;;;;;;;31.17;12.57;;;;;;;6.25;100.00;103729.50;5279273;28;20443;-79
2023/02/05 05:33:49;;;;;;;36.38;13.35;;;;;;;6.22;100.00;103733.19;5275284;28;20031;-79
2023/02/05 05:36:20;;;;;;;35.65;13.75;;;;;;;6.22;100.00;103729.63;5256219;28;20024;-79
2023/02/05 05:38:50;;;;;;;38.08;14.65;;;;;;;6.25;100.00;103728.63;5279369;28;20485;-79
2023/02/05 05:44:11;;;;;;;36.83;15.05;;;;;;;6.20;100.00;103719.03;5267495;28;20027;-79
2023/02/05 05:46:41;;;;;;;42.45;15.32;;;;;;;6.17;100.00;103715.63;5281018;28;20024;-79
2023/02/05 05:49:12;;;;;;;40.50;16.40;;;;;;;6.15;100.00;103713.03;5249623;28;20036;-78
2023/02/05 05:51:42;;;;;;;42.03;16.63;;;;;;;6.19;100.00;103708.44;5249348;28;20024;-80
2023/02/05 05:54:13;;;;;;;43.80;17.23;;;;;;;6.21;100.00;103706.56;5268623;28;20099;-79
2023/02/05 05:56:44;;;;;;;41.97;17.08;;;;;;;6.18;100.00;103704.06;5270362;28;20027;-79
2023/02/05 05:59:14;;;;;;;42.67;16.65;;;;;;;6.19;100.00;103706.63;5284397;28;20102;-79
2023/02/05 06:01:45;;;;;;;58.10;19.40;;;;;;;6.17;100.00;103700.50;5258983;28;20023;-79
2023/02/05 06:04:15;;;;;;;55.88;18.60;;;;;;;6.18;100.00;103704.91;5274280;28;20100;-78
2023/02/05 06:06:46;;;;;;;48.92;20.08;;;;;;;6.27;100.00;103695.63;5248925;28;20031;-78
2023/02/05 06:09:16;;;;;;;52.13;19.23;;;;;;;6.29;100.00;103693.75;5249920;28;20077;-80
2023/02/05 06:11:47;;;;;;;49.30;19.02;;;;;;;6.37;100.00;103690.75;5281244;28;20083;-80
2023/02/05 06:14:18;;;;;;;45.85;19.27;;;;;;;6.38;100.00;103700.50;5289620;28;20016;-81
2023/02/05 06:16:48;;;;;;;48.92;19.63;;;;;;;6.39;100.00;103705.75;5274731;28;20077;-78
2023/02/05 06:19:19;;;;;;;46.90;21.10;;;;;;;6.45;100.00;103696.59;5262490;28;20023;-78
2023/02/05 06:21:49;;;;;;;59.42;22.70;;;;;;;6.41;100.00;103700.34;5266642;28;20028;-78
2023/02/05 06:24:20;;;;;;;50.58;21.50;;;;;;;6.47;100.00;103710.72;5275470;28;20461;-79
2023/02/05 06:26:50;;;;;;;48.47;21.30;;;;;;;6.51;100.00;103712.31;5255745;28;20023;-78
2023/02/05 06:29:21;;;;;;;46.45;20.65;;;;;;;6.54;100.00;103719.31;5277091;28;20488;-78
2023/02/05 06:31:51;;;;;;;50.50;21.45;;;;;;;6.58;100.00;103712.94;5266498;28;20059;-77
2023/02/05 06:34:22;;;;;;;52.38;23.13;;;;;;;6.58;100.00;103720.94;5248513;28;20047;-79
2023/02/05 06:36:52;;;;;;;46.95;21.33;;;;;;;6.63;100.00;103716.25;5256568;28;20020;-79
2023/02/05 06:39:23;;;;;;;49.45;21.30;;;;;;;6.65;100.00;103725.91;5264887;28;20020;-78
2023/02/05 06:41:53;;;;;;;42.72;21.10;;;;;;;6.70;100.00;103725.69;5253672;28;20068;-77
2023/02/05 06:44:24;;;;;;;30.98;15.48;;;;;;;6.67;100.00;103724.00;5253265;28;20378;-78
2023/02/05 06:46:54;;;;;;;23.15;11.55;;;;;;;6.67;100.00;103736.47;5246383;28;20035;-79
2023/02/05 06:49:25;;;;;;;18.33;7.72;;;;;;;6.67;100.00;103741.81;5266370;28;20031;-79
2023/02/05 06:51:56;;;;;;;24.13;8.98;;;;;;;6.65;100.00;103736.56;5285839;28;20027;-78
2023/02/05 06:54:27;;;;;;;18.13;7.55;;;;;;;6.61;100.00;103737.63;5271794;28;20023;-79
2023/02/05 06:56:58;;;;;;;20.00;5.72;;;;;;;6.57;100.00;103741.38;5274862;28;20048;-78
2023/02/05 06:59:28;;;;;;;28.17;10.05;;;;;;;6.57;100.00;103753.84;5250772;28;20116;-78
2023/02/05 07:01:59;;;;;;;23.13;9.25;;;;;;;6.53;100.00;103762.94;5273902;28;20039;-79
2023/02/05 07:04:29;;;;;;;25.48;9.13;;;;;;;6.47;100.00;103780.91;5264435;28;20096;-78
2023/02/05 07:07:00;;;;;;;22.63;8.38;;;;;;;6.42;100.00;103787.41;5259803;28;20077;-78
2023/02/05 07:09:31;;;;;;;15.68;5.60;;;;;;;6.40;100.00;103791.94;5246484;28;20417;-78
2023/02/05 07:12:01;;;;;;;10.80;2.92;;;;;;;6.31;100.00;103795.88;5263634;28;20030;-79
2023/02/05 07:14:37;;;;;;;10.77;3.40;;;;;;;6.29;100.00;103808.41;5273191;28;20016;-78
2023/02/05 07:17:08;;;;;;;12.23;2.53;;;;;;;6.27;100.00;103815.59;5271672;28;20031;-77
2023/02/05 07:19:38;;;;;;;13.90;2.15;;;;;;;6.21;100.00;103830.06;5285353;28;20015;-77
2023/02/05 07:22:12;;;;;;;6.90;1.80;;;;;;;6.18;100.00;103842.66;5271773;28;20030;-77
2023/02/05 07:24:42;;;;;;;11.38;2.63;;;;;;;6.10;100.00;103828.78;5273294;28;20035;-77
2023/02/05 07:27:13;;;;;;;9.30;2.40;;;;;;;6.06;100.00;103854.69;5278003;28;20450;-76
2023/02/05 07:29:43;;;;;;;10.38;2.08;;;;;;;6.05;100.00;103865.44;5277829;28;20393;-76
2023/02/05 07:32:14;;;;;;;5.63;1.50;;;;;;;6.03;100.00;103870.84;5285316;28;20076;-76
2023/02/05 07:34:44;;;;;;;5.20;1.20;;;;;;;6.05;100.00;103876.94;5283983;28;20042;-76
2023/02/05 07:37:15;;;;;;;7.35;2.10;;;;;;;6.06;100.00;103888.47;5263735;28;20114;-77
2023/02/05 07:39:45;;;;;;;6.22;1.55;;;;;;;6.04;100.00;103893.88;5248829;28;20395;-77
2023/02/05 07:42:16;;;;;;;7.22;2.00;;;;;;;6.00;100.00;103886.94;5275658;28;20027;-77
2023/02/05 07:44:46;;;;;;;14.57;2.28;;;;;;;6.04;100.00;103887.69;5263609;28;20077;-77
2023/02/05 07:47:17;;;;;;;11.57;1.35;;;;;;;6.04;100.00;103885.88;5263743;28;20051;-77
2023/02/05 07:49:47;;;;;;;10.57;1.85;;;;;;;6.08;100.00;103889.31;5268125;28;20028;-77
2023/02/05 07:52:18;;;;;;;10.50;1.75;;;;;;;6.07;100.00;103900.88;5273162;28;20233;-76
2023/02/05 07:54:48;;;;;;;13.23;4.43;;;;;;;6.10;100.00;103908.75;5277656;28;20047;-77
2023/02/05 07:57:19;;;;;;;14.18;2.17;;;;;;;6.09;100.00;103915.88;5264944;28;20486;-77
2023/02/05 07:59:49;;;;;;;14.55;3.90;;;;;;;6.09;100.00;103902.56;5277603;28;20462;-77
2023/02/05 08:02:20;;;;;;;11.55;1.92;;;;;;;6.09;100.00;103923.03;5278168;28;20529;-76
2023/02/05 08:04:50;;;;;;;13.75;2.42;;;;;;;6.11;100.00;103932.66;5285477;28;20026;-77
2023/02/05 08:07:21;;;;;;;11.50;2.10;;;;;;;6.13;100.00;103929.97;5282023;28;20024;-76
2023/02/05 08:09:51;;;;;;;22.58;8.85;;;;;;;6.16;100.00;103946.69;5274564;28;20024;-76
2023/02/05 08:12:22;;;;;;;17.58;5.25;;;;;;;6.10;100.00;103954.94;5270838;28;20578;-77
2023/02/05 08:14:52;;;;;;;12.93;2.08;;;;;;;6.05;100.00;103958.72;5284661;28;20051;-77
2023/02/05 08:17:23;;;;;;;15.00;4.93;;;;;;;6.03;100.00;103961.44;5271201;28;20019;-77
2023/02/05 08:19:53;;;;;;;22.42;6.55;;;;;;;5.97;100.00;103967.88;5266832;28;20051;-77
2023/02/05 08:22:24;;;;;;;11.63;3.28;;;;;;;6.01;100.00;103970.41;5271817;28;20016;-76
2023/02/05 08:24:55;;;;;;;18.48;2.50;;;;;;;5.97;100.00;103967.88;5265779;28;20022;-76
2023/02/05 08:27:26;;;;;;;16.98;2.08;;;;;;;6.03;100.00;103977.44;5276261;28;20016;-76
2023/02/05 08:29:56;;;;;;;28.73;5.00;;;;;;;6.10;100.00;103988.72;5263467;28;20074;-76
2023/02/05 08:32:27;;;;;;;13.60;2.17;;;;;;;6.18;100.00;103971.50;5273705;28;20039;-76
2023/02/05 08:34:57;;;;;;;12.50;2.80;;;;;;;6.25;100.00;103977.44;5252707;28;20209;-76
2023/02/05 08:37:28;;;;;;;11.15;2.17;;;;;;;6.32;100.00;103988.72;5272746;28;20072;-77
2023/02/05 08:39:58;;;;;;;21.40;3.55;;;;;;;6.38;100.00;103973.34;5250666;28;20027;-76
2023/02/05 08:42:29;;;;;;;13.20;3.28;;;;;;;6.44;100.00;103981.09;5284643;28;20396;-75
2023/02/05 08:45:00;;;;;;;10.40;2.00;;;;;;;6.49;100.00;103992.44;5264057;28;20080;-76
2023/02/05 08:47:31;;;;;;;10.50;2.22;;;;;;;6.49;100.00;103984.44;5263323;28;20031;-77
2023/02/05 08:50:04;;;;;;;18.00;2.80;;;;;;;6.55;100.00;103972.66;5283700;28;20583;-76
2023/02/05 08:52:35;;;;;;;31.33;5.57;;;;;;;6.56;100.00;103971.72;5285058;28;20030;-77
2023/02/05 08:55:05;;;;;;;9.27;2.72;;;;;;;6.72;100.00;103974.59;5283851;28;20027;-76
2023/02/05 08:57:36;;;;;;;18.40;2.90;;;;;;;6.97;100.00;103982.44;5280405;28;20020;-76
2023/02/05 09:00:07;;;;;;;27.92;3.17;;;;;;;7.19;100.00;103971.69;5265244;28;20016;-76
2023/02/05 09:02:40;;;;;;;15.35;2.22;;;;;;;7.24;100.00;103978.56;5280749;28;20024;-76
2023/02/05 09:05:11;;;;;;;13.60;2.85;;;;;;;7.11;100.00;103988.03;5266681;28;20028;-76
2023/02/05 09:07:41;;;;;;;16.67;2.40;;;;;;;6.84;100.00;103991.91;5286274;28;20030;-76
2023/02/05 09:10:12;;;;;;;13.45;2.97;;;;;;;6.48;100.00;103977.38;5287353;28;20101;-77
2023/02/05 09:12:45;;;;;;;13.27;1.70;;;;;;;6.28;100.00;103997.78;5266437;28;20020;-76
2023/02/05 09:15:15;;;;;;;11.00;3.05;;;;;;;6.22;100.00;104006.88;5279564;28;20024;-77
2023/02/05 09:17:46;;;;;;;21.63;7.40;;;;;;;6.23;100.00;103990.84;5266354;28;20024;-77
2023/02/05 09:20:17;;;;;;;20.05;4.47;;;;;;;6.54;100.00;103997.59;5266093;28;20385;-76
2023/02/05 09:22:49;;;;;;;27.20;8.30;;;;;;;6.85;100.00;104004.31;5266408;28;20089;-77
2023/02/05 09:25:19;;;;;;;23.42;5.05;;;;;;;7.24;100.00;103996.38;5279418;28;20046;-77
2023/02/05 09:27:50;;;;;;;32.00;11.63;;;;;;;7.29;100.00;104010.41;5266252;28;20022;-77
2023/02/05 09:30:20;;;;;;;30.08;9.10;;;;;;;7.33;100.00;104006.66;5266048;28;20031;-77
2023/02/05 09:32:51;;;;;;;38.55;11.20;;;;;;;7.34;100.00;104005.72;5266449;28;20542;-77
2023/02/05 09:35:21;;;;;;;27.35;8.38;;;;;;;7.57;100.00;104020.72;5279508;28;20119;-76
2023/02/05 09:37:51;;;;;;;20.23;6.38;;;;;;;7.39;100.00;104009.06;5279625;28;20019;-76
2023/02/05 09:40:25;;;;;;;58.17;18.77;;;;;;;7.27;100.00;104022.94;5261847;28;20031;-76
2023/02/05 09:43:16;;;;;;;31.45;8.43;;;;;;;7.19;100.00;104019.75;5281097;28;20030;-77
2023/02/05 09:46:09;;;;;;;23.27;5.32;;;;;;;7.14;100.00;104033.31;5274693;28;20477;-77
2023/02/05 09:49:16;;;;;;;19.77;4.43;;;;;;;6.98;100.00;104029.56;5274670;28;20575;-76
2023/02/05 09:51:50;;;;;;;27.50;7.63;;;;;;;6.88;100.00;104026.41;5279346;28;20103;-76
2023/02/05 09:54:42;;;;;;;44.55;13.73;;;;;;;6.80;100.00;104020.53;5261356;28;20365;-76
2023/02/05 09:57:16;;;;;;;26.63;4.70;;;;;;;6.48;100.00;104016.53;5277618;28;20047;-76
2023/02/05 09:59:50;;;;;;;31.10;8.13;;;;;;;6.27;100.00;104018.22;5279156;28;20012;-76
2023/02/05 10:02:30;;;;;;;23.67;4.63;;;;;;;6.07;100.00;104018.16;5278842;28;20188;-77
2023/02/05 10:05:00;;;;;;;20.85;3.42;;;;;;;5.91;100.00;104024.06;5285297;28;20106;-78
2023/02/05 10:07:40;;;;;;;19.17;2.78;;;;;;;5.76;100.00;104024.63;5286754;28;20108;-77
2023/02/05 10:10:25;;;;;;;14.05;2.95;;;;;;;5.70;100.00;104028.38;5286497;28;20055;-77
2023/02/05 10:13:15;;;;;;;14.82;3.47;;;;;;;5.72;100.00;104023.88;5265448;28;20070;-78
2023/02/05 10:16:23;;;;;;;20.75;3.50;;;;;;;5.70;100.00;104014.19;5284183;28;20035;-78
2023/02/05 10:19:19;;;;;;;13.05;3.38;;;;;;;5.65;100.00;104003.72;5273217;28;20386;-77
2023/02/05 10:22:00;;;;;;;12.18;3.40;;;;;;;5.66;100.00;104007.25;5271867;28;20381;-77
2023/02/05 10:24:41;;;;;;;24.27;3.15;;;;;;;5.68;100.00;103994.75;5275398;28;20039;-77
2023/02/05 10:27:22;;;;;;;20.30;3.35;;;;;;;5.88;100.00;104020.66;5278608;28;20392;-77
2023/02/05 10:30:17;;;;;;;24.95;7.43;;;;;;;6.10;100.00;104036.69;5266225;28;20020;-77
2023/02/05 10:32:56;;;;;;;36.80;10.30;;;;;;;6.22;100.00;104009.53;5286204;28;20020;-77
2023/02/05 10:35:43;;;;;;;22.08;6.68;;;;;;;6.55;100.00;104019.81;5265641;28;20465;-77
2023/02/05 10:38:21;;;;;;;26.88;3.80;;;;;;;6.96;100.00;104013.59;5264768;28;20057;-77
2023/02/05 10:40:57;;;;;;;24.52;4.13;;;;;;;7.35;100.00;104003.91;5259370;28;20522;-77
2023/02/05 10:43:44;;;;;;;24.83;3.63;;;;;;;7.57;100.00;103998.47;5279610;28;20069;-77
2023/02/05 10:46:15;;;;;;;31.25;4.63;;;;;;;7.49;100.00;103990.81;5263031;28;20375;-77
2023/02/05 10:49:20;;;;;;;28.23;7.90;;;;;;;7.37;100.00;104000.22;5256680;28;20082;-77
2023/02/05 10:51:52;;;;;;;32.00;4.38;;;;;;;7.32;100.00;104002.25;5261485;27;20310;-77
2023/02/05 10:54:27;;;;;;;26.10;3.90;;;;;;;7.17;100.00;103994.91;5281749;28;20026;-77
2023/02/05 10:56:58;;;;;;;22.80;4.03;;;;;;;7.08;100.00;103992.63;5286158;28;20049;-77
2023/02/05 10:59:33;;;;;;;29.95;5.13;;;;;;;6.99;100.00;103988.59;5277466;28;20186;-76
2023/02/05 11:02:08;;;;;;;16.65;3.40;;;;;;;6.93;100.00;103999.53;5272201;28;20401;-77
2023/02/05 11:05:00;;;;;;;34.58;5.25;;;;;;;6.89;100.00;103995.25;5265583;28;20027;-77
2023/02/05 11:07:37;;;;;;;24.60;4.13;;;;;;;6.94;100.00;103986.09;5245860;28;20134;-77
2023/02/05 11:10:20;;;;;;;31.33;6.07;;;;;;;7.00;100.00;103991.19;5277743;28;20066;-77
2023/02/05 11:12:53;;;;;;;38.53;6.32;;;;;;;7.15;100.00;103991.44;5264551;28;20485;-77
2023/02/05 11:15:27;;;;;;;31.20;5.78;;;;;;;7.27;100.00;103991.75;5278037;28;20027;-77
2023/02/05 11:18:00;;;;;;;27.73;4.00;;;;;;;7.43;100.00;103997.31;5245928;28;20055;-78
2023/02/05 11:20:33;;;;;;;25.98;3.70;;;;;;;7.51;100.00;104000.47;5264417;28;20034;-77
2023/02/05 11:23:06;;;;;;;33.45;7.13;;;;;;;7.65;100.00;104002.53;5258094;28;20023;-79
2023/02/05 11:25:48;;;;;;;31.00;4.63;;;;;;;7.96;100.00;104004.66;5282512;28;20069;-78
2023/02/05 11:28:23;;;;;;;32.15;7.32;;;;;;;8.10;100.00;103998.66;5259128;28;20086;-77
2023/02/05 11:30:54;;;;;;;34.17;5.63;;;;;;;8.05;100.00;103998.88;5264400;28;20039;-77
2023/02/05 11:33:27;;;;;;;22.15;3.75;;;;;;;8.15;100.00;103991.28;5268639;28;20094;-78
2023/02/05 11:36:20;;;;;;;27.55;4.40;;;;;;;8.24;100.00;103990.84;5266822;28;20028;-78
2023/02/05 11:38:55;;;;;;;26.30;4.22;;;;;;;8.49;100.00;103995.00;5272906;28;20026;-78
2023/02/05 11:41:27;;;;;;;36.78;4.88;;;;;;;8.65;100.00;103982.59;5268848;28;20274;-77
2023/02/05 11:44:01;;;;;;;23.52;3.72;;;;;;;8.49;100.00;103982.50;5274770;28;20059;-77
2023/02/05 11:46:42;;;;;;;31.67;5.32;;;;;;;8.55;100.00;103984.88;5253138;28;20047;-76